createdAt,value
2023-05-18T00:04:43.578Z,5.46
2023-05-18T00:10:03.289Z,5.33
2023-05-18T00:20:41.674Z,5.22
2023-05-18T00:26:01.141Z,5.16
2023-05-18T00:31:20.334Z,5.03
2023-05-18T00:36:48.755Z,4.9
2023-05-18T00:41:59.046Z,4.79
2023-05-18T00:47:18.352Z,4.64
2023-05-18T00:57:57.004Z,4.41
2023-05-18T01:03:16.730Z,4.21
2023-05-18T01:08:36.466Z,4.16
2023-05-18T01:13:55.670Z,4
2023-05-18T01:19:14.924Z,3.93
2023-05-18T01:24:34.290Z,3.79
2023-05-18T01:29:53.362Z,3.69
2023-05-18T01:40:31.504Z,3.58
2023-05-18T01:45:50.980Z,3.52
2023-05-18T01:51:09.905Z,3.46
2023-05-18T01:56:28.926Z,3.45
2023-05-18T02:01:48.362Z,3.4
2023-05-18T02:07:07.792Z,3.27
2023-05-18T02:12:27.468Z,3.14
2023-05-18T02:23:05.403Z,3.03
2023-05-18T02:28:25.115Z,2.96
2023-05-18T02:39:13.336Z,2.76
2023-05-18T02:44:25.254Z,2.77
2023-05-18T02:49:50.194Z,2.59
2023-05-18T02:55:01.975Z,2.46
2023-05-18T03:05:39.240Z,2.22
2023-05-18T03:10:58.354Z,2.16
2023-05-18T03:21:36.300Z,2.29
2023-05-18T03:32:14.328Z,2.14
2023-05-18T03:37:33.238Z,2.08
2023-05-18T03:48:11.560Z,1.81
2023-05-18T03:53:30.957Z,1.64
2023-05-18T04:04:10.347Z,1.5
2023-05-18T04:09:29.285Z,1.57
2023-05-18T04:14:48.823Z,1.77
2023-05-18T04:20:07.757Z,1.94
2023-05-18T04:30:46.228Z,2.11
2023-05-18T04:36:05.583Z,2.15
2023-05-18T04:46:45.275Z,2.24
2023-05-18T04:52:03.670Z,2.45
2023-05-18T04:57:22.587Z,2.87
2023-05-18T05:02:41.776Z,3.29
2023-05-18T05:13:20.903Z,4.23
2023-05-18T05:18:39.569Z,4.79
2023-05-18T05:29:18.342Z,5.47
2023-05-18T05:34:37.516Z,5.95
2023-05-18T05:39:56.467Z,6.13
2023-05-18T05:45:16.021Z,6.37
2023-05-18T05:55:55.224Z,7.35
2023-05-18T06:01:14.028Z,7.55
2023-05-18T06:11:52.805Z,8.14
2023-05-18T06:12:57.035Z,8.22
2023-05-18T06:17:45.342Z,8.17
2023-05-18T06:23:04.673Z,8.49
2023-05-18T06:28:23.463Z,8.68
2023-05-18T06:33:43.754Z,9.2
2023-05-18T06:44:21.961Z,9.5
2023-05-18T06:49:41.605Z,9.52
2023-05-18T06:56:15.716Z,9.97
2023-05-18T07:11:00.665Z,10.8
2023-05-18T07:16:20.046Z,10.67
2023-05-18T07:21:39.671Z,10.8
2023-05-18T07:27:00.867Z,10.99
2023-05-18T07:37:38.244Z,11.6
2023-05-18T07:42:57.765Z,11.86
2023-05-18T07:53:36.046Z,12.51
2023-05-18T07:58:54.793Z,12.82
2023-05-18T08:04:14.143Z,13.09
2023-05-18T08:09:33.008Z,13.27
2023-05-18T08:20:11.209Z,13.57
2023-05-18T08:25:29.434Z,13.69
2023-05-18T08:32:38.819Z,13.85
2023-05-18T08:36:44.386Z,14.18
2023-05-18T08:41:28.178Z,14.29
2023-05-18T08:46:47.481Z,14.47
2023-05-18T08:52:06.275Z,14.64
2023-05-18T08:57:25.423Z,14.92
2023-05-18T09:02:44.551Z,15.42
2023-05-18T09:13:23.105Z,15.39
2023-05-18T09:18:41.878Z,15.35
2023-05-18T09:24:01.001Z,15.46
2023-05-18T09:34:40.049Z,16.25
2023-05-18T09:39:59.707Z,15.63
2023-05-18T09:45:18.652Z,15.28
2023-05-18T09:58:07.113Z,15.65
2023-05-18T10:01:14.442Z,16.16
2023-05-18T10:06:34.084Z,16.17
2023-05-18T10:17:15.428Z,16.28
2023-05-18T10:22:31.632Z,16.75
2023-05-18T10:27:50.632Z,17.12
2023-05-18T10:33:17.259Z,17.4
2023-05-18T10:43:48.371Z,17.17
2023-05-18T10:49:07.552Z,17.2
2023-05-18T10:59:48.129Z,16.85
2023-05-18T11:05:05.595Z,16.98
2023-05-18T11:10:24.257Z,16.21
2023-05-18T11:15:43.058Z,16.89
2023-05-18T11:21:01.037Z,17.29
2023-05-18T11:26:20.086Z,17.62
2023-05-18T11:31:40.242Z,17.73
2023-05-18T11:42:18.424Z,17.73
2023-05-18T11:47:37.575Z,17.89
2023-05-18T11:52:56.730Z,17.89
2023-05-18T11:58:15.515Z,18.32
2023-05-18T12:03:34.238Z,18.08
2023-05-18T12:08:53.090Z,17.98
2023-05-18T12:14:12.419Z,18.33
2023-05-18T12:24:50.892Z,18.12
2023-05-18T12:40:48.632Z,18.2
2023-05-18T12:46:08.223Z,18.04
2023-05-18T12:56:46.480Z,17.87
2023-05-18T13:07:24.820Z,18.4
2023-05-18T13:12:43.543Z,17.99
2023-05-18T13:23:22.059Z,18.21
2023-05-18T13:28:41.400Z,18.77
2023-05-18T13:39:19.080Z,18.04
2023-05-18T13:44:38.333Z,17.58
2023-05-18T13:49:57.811Z,18.28
2023-05-18T14:00:36.012Z,19.08
2023-05-18T14:05:54.687Z,18.84
2023-05-18T14:16:33.305Z,19.2
2023-05-18T14:21:52.517Z,18.2
2023-05-18T14:27:11.340Z,18.29
2023-05-18T14:32:30.224Z,18.6
2023-05-18T14:43:09.305Z,17.91
2023-05-18T14:48:28.518Z,17.84
2023-05-18T14:59:05.352Z,17.81
2023-05-18T15:04:33.772Z,17.75
2023-05-18T15:09:43.882Z,18.52
2023-05-18T15:15:03.185Z,19.17
2023-05-18T15:20:21.932Z,19.51
2023-05-18T15:25:40.979Z,18.87
2023-05-18T15:31:00.522Z,18.39
2023-05-18T15:41:38.597Z,18.21
2023-05-18T15:46:57.327Z,18.02
2023-05-18T15:52:16.810Z,18.09
2023-05-18T15:57:36.336Z,18.5
2023-05-18T16:02:55.104Z,18.42
2023-05-18T16:08:13.996Z,17.94
2023-05-18T16:13:33.109Z,17.58
2023-05-18T16:25:26.677Z,18.73
2023-05-18T16:29:31.685Z,18.79
2023-05-18T16:40:09.913Z,18.12
2023-05-18T16:45:29.605Z,17.37
2023-05-18T16:50:47.915Z,16.92
2023-05-18T16:56:07.397Z,17.24
2023-05-18T17:06:45.358Z,17.68
2023-05-18T17:12:04.828Z,17.57
2023-05-18T17:22:42.817Z,17.6
2023-05-18T17:28:01.990Z,17.61
2023-05-18T17:33:20.989Z,17.43
2023-05-18T17:38:39.854Z,17.21
2023-05-18T17:43:59.404Z,17.02
2023-05-18T17:49:18.867Z,16.89
2023-05-18T17:54:38.200Z,16.79
2023-05-18T18:05:16.903Z,16.48
2023-05-18T18:10:36.511Z,16.27
2023-05-18T18:21:14.315Z,15.63
2023-05-18T18:26:33.525Z,15.36
2023-05-18T18:37:11.866Z,14.88
2023-05-18T18:47:50.881Z,14.32
2023-05-18T18:53:09.966Z,14.13
2023-05-18T19:03:48.481Z,13.69
2023-05-18T19:09:08.112Z,13.55
2023-05-18T19:19:45.991Z,13.26
2023-05-18T19:25:04.038Z,13.03
2023-05-18T19:30:23.746Z,12.85
2023-05-18T19:35:42.572Z,12.7
2023-05-18T19:46:21.667Z,12.42
2023-05-18T19:51:49.555Z,12.31
2023-05-18T19:56:59.463Z,12.21
2023-05-18T20:02:27.571Z,12.11
2023-05-18T20:07:37.959Z,12.05
2023-05-18T20:13:05.071Z,12.02
2023-05-18T20:18:16.181Z,11.97
2023-05-18T20:28:54.627Z,11.79
2023-05-18T20:34:13.492Z,11.74
2023-05-18T20:39:41.915Z,11.67
2023-05-18T20:44:52.457Z,11.53
2023-05-18T20:50:11.506Z,11.39
2023-05-18T20:55:30.559Z,11.18
2023-05-18T21:06:09.553Z,10.75
2023-05-18T21:11:28.885Z,10.5
2023-05-18T21:22:07.999Z,10.2
2023-05-18T21:27:26.755Z,10.09
2023-05-18T21:38:05.556Z,9.57
2023-05-18T21:48:43.513Z,9.13
2023-05-18T21:54:02.746Z,8.89
2023-05-18T22:04:41.036Z,8.53
2023-05-18T22:10:00.741Z,8.41
2023-05-18T22:20:39.445Z,8.25
2023-05-18T22:31:18.075Z,7.97
2023-05-18T22:36:37.145Z,7.98
2023-05-18T22:47:15.709Z,7.71
2023-05-18T22:52:34.958Z,7.65
2023-05-18T23:03:23.627Z,7.45
2023-05-18T23:08:32.714Z,7.39
2023-05-18T23:13:52.454Z,7.32
2023-05-18T23:19:12.287Z,7.08
2023-05-18T23:24:40.341Z,7.04
2023-05-18T23:29:50.631Z,7.11
2023-05-18T23:35:19.097Z,7.14
2023-05-18T23:45:48.640Z,6.85
2023-05-18T23:51:07.726Z,6.51
2023-05-18T23:56:27.168Z,6.19
